createdAt,value
2022-08-25T00:00:12.879Z,19.97
2022-08-25T00:02:14.459Z,20.00
2022-08-25T00:04:21.043Z,20.00
2022-08-25T00:06:24.353Z,19.97
2022-08-25T00:08:25.871Z,19.97
2022-08-25T00:10:27.715Z,19.88
2022-08-25T00:12:29.303Z,19.88
2022-08-25T00:14:34.195Z,19.94
2022-08-25T00:16:35.863Z,19.92
2022-08-25T00:18:37.489Z,19.92
2022-08-25T00:20:40.449Z,19.87
2022-08-25T00:22:49.487Z,19.80
2022-08-25T00:24:51.006Z,19.82
2022-08-25T00:26:54.712Z,19.82
2022-08-25T00:29:01.808Z,19.76
2022-08-25T00:31:04.288Z,19.82
2022-08-25T00:33:07.551Z,19.78
2022-08-25T00:35:09.415Z,19.81
2022-08-25T00:37:15.379Z,19.85
2022-08-25T00:39:17.320Z,19.71
2022-08-25T00:41:22.296Z,19.79
2022-08-25T00:43:25.107Z,19.84
2022-08-25T00:45:27.072Z,19.71
2022-08-25T00:47:28.611Z,19.76
2022-08-25T00:49:33.588Z,19.71
2022-08-25T00:51:39.266Z,19.70
2022-08-25T00:53:44.473Z,19.62
2022-08-25T00:55:46.036Z,19.68
2022-08-25T00:57:52.108Z,19.68
2022-08-25T00:59:55.010Z,19.72
2022-08-25T01:01:57.946Z,19.66
2022-08-25T01:03:59.574Z,19.69
2022-08-25T01:06:02.493Z,19.61
2022-08-25T01:08:06.558Z,19.61
2022-08-25T01:10:10.566Z,19.55
2022-08-25T01:12:12.366Z,19.60
2022-08-25T01:14:18.518Z,19.63
2022-08-25T01:16:20.724Z,19.62
2022-08-25T01:18:22.721Z,19.57
2022-08-25T01:20:29.291Z,19.52
2022-08-25T01:22:32.510Z,19.53
2022-08-25T01:24:40.746Z,19.50
2022-08-25T01:26:42.284Z,19.56
2022-08-25T01:28:46.826Z,19.54
2022-08-25T01:30:50.780Z,19.52
2022-08-25T01:32:52.386Z,19.52
2022-08-25T01:34:53.990Z,19.45
2022-08-25T01:36:57.766Z,19.41
2022-08-25T01:39:00.811Z,19.41
2022-08-25T01:41:02.329Z,19.50
2022-08-25T01:43:16.614Z,19.42
2022-08-25T01:45:18.247Z,19.41
2022-08-25T01:47:20.243Z,19.45
2022-08-25T01:49:23.687Z,19.40
2022-08-25T01:51:29.786Z,19.31
2022-08-25T01:53:34.526Z,19.31
2022-08-25T01:55:38.047Z,19.38
2022-08-25T01:57:39.565Z,19.36
2022-08-25T01:59:41.162Z,19.40
2022-08-25T02:01:42.761Z,19.37
2022-08-25T02:03:50.397Z,19.40
2022-08-25T02:05:53.680Z,19.29
2022-08-25T02:07:55.240Z,19.20
2022-08-25T02:09:56.837Z,19.24
2022-08-25T02:12:01.647Z,19.24
2022-08-25T02:14:06.593Z,19.34
2022-08-25T02:16:10.046Z,19.34
2022-08-25T02:18:15.023Z,19.33
2022-08-25T02:20:17.234Z,19.21
2022-08-25T02:22:19.073Z,19.25
2022-08-25T02:24:22.865Z,19.21
2022-08-25T02:26:25.443Z,19.26
2022-08-25T02:28:28.334Z,19.23
2022-08-25T02:30:30.644Z,19.12
2022-08-25T02:32:32.226Z,19.13
2022-08-25T02:34:33.753Z,19.04
2022-08-25T02:36:36.823Z,19.10
2022-08-25T02:38:39.071Z,19.09
2022-08-25T02:40:40.602Z,18.97
2022-08-25T02:42:42.688Z,18.87
2022-08-25T02:44:46.034Z,18.86
2022-08-25T02:46:56.542Z,18.82
2022-08-25T02:48:58.768Z,18.75
2022-08-25T02:51:01.578Z,18.74
2022-08-25T02:53:03.153Z,18.72
2022-08-25T02:55:07.749Z,18.74
2022-08-25T02:57:09.222Z,18.70
2022-08-25T02:59:10.753Z,18.73
2022-08-25T03:01:14.688Z,18.73
2022-08-25T03:03:16.683Z,18.68
2022-08-25T03:05:18.323Z,18.66
2022-08-25T03:07:20.220Z,18.64
2022-08-25T03:09:22.841Z,18.62
2022-08-25T03:11:24.356Z,18.68
2022-08-25T03:13:25.879Z,18.75
2022-08-25T03:15:27.797Z,18.65
2022-08-25T03:17:33.585Z,18.63
2022-08-25T03:19:37.518Z,18.60
2022-08-25T03:21:39.223Z,18.66
2022-08-25T03:23:41.431Z,18.65
2022-08-25T03:25:43.106Z,18.69
2022-08-25T03:27:44.746Z,18.76
2022-08-25T03:29:46.257Z,18.65
2022-08-25T03:31:47.929Z,18.62
2022-08-25T03:33:50.975Z,18.56
2022-08-25T03:35:52.615Z,18.68
2022-08-25T03:37:56.061Z,18.72
2022-08-25T03:39:57.763Z,18.77
2022-08-25T03:41:59.371Z,18.72
2022-08-25T03:44:03.608Z,18.85
2022-08-25T03:46:05.580Z,18.91
2022-08-25T03:48:07.220Z,18.91
2022-08-25T03:50:11.501Z,18.78
2022-08-25T03:52:13.135Z,18.63
2022-08-25T03:54:15.775Z,18.45
2022-08-25T03:56:17.968Z,18.57
2022-08-25T03:58:19.615Z,18.63
2022-08-25T04:00:23.115Z,18.68
2022-08-25T04:02:24.822Z,18.78
2022-08-25T04:04:26.383Z,18.80
2022-08-25T04:06:29.359Z,18.77
2022-08-25T04:08:30.912Z,18.68
2022-08-25T04:10:32.496Z,18.56
2022-08-25T04:12:34.863Z,18.51
2022-08-25T04:14:36.843Z,18.61
2022-08-25T04:16:38.649Z,18.61
2022-08-25T04:18:40.434Z,18.64
2022-08-25T04:20:46.572Z,18.59
2022-08-25T04:22:49.976Z,18.55
2022-08-25T04:24:51.477Z,18.60
2022-08-25T04:26:53.021Z,18.72
2022-08-25T04:28:56.565Z,18.72
2022-08-25T04:30:58.047Z,18.81
2022-08-25T04:32:59.584Z,18.84
2022-08-25T04:35:01.146Z,18.86
2022-08-25T04:37:04.037Z,18.96
2022-08-25T04:39:07.455Z,19.11
2022-08-25T04:41:11.267Z,19.28
2022-08-25T04:43:12.759Z,19.41
2022-08-25T04:45:14.299Z,19.50
2022-08-25T04:47:15.843Z,19.43
2022-08-25T04:49:17.862Z,19.46
2022-08-25T04:51:22.298Z,19.47
2022-08-25T04:53:23.859Z,19.65
2022-08-25T04:55:26.916Z,19.71
2022-08-25T04:57:28.410Z,20.04
2022-08-25T04:59:30.573Z,20.14
2022-08-25T05:01:32.693Z,20.13
2022-08-25T05:03:34.242Z,20.24
2022-08-25T05:05:37.472Z,20.52
2022-08-25T05:07:39.014Z,20.67
2022-08-25T05:09:40.647Z,20.55
2022-08-25T05:11:43.835Z,20.53
2022-08-25T05:13:51.251Z,20.56
2022-08-25T05:15:54.002Z,20.63
2022-08-25T05:17:56.177Z,20.79
2022-08-25T05:19:57.863Z,20.68
2022-08-25T05:21:59.336Z,20.74
2022-08-25T05:24:01.870Z,20.77
2022-08-25T05:26:05.442Z,20.74
2022-08-25T05:28:08.804Z,20.87
2022-08-25T05:30:11.613Z,20.91
2022-08-25T05:32:13.179Z,20.84
2022-08-25T05:34:14.697Z,20.66
2022-08-25T05:36:17.151Z,20.61
2022-08-25T05:38:18.800Z,20.53
2022-08-25T05:40:20.644Z,20.45
2022-08-25T05:42:22.300Z,20.24
2022-08-25T05:44:25.150Z,20.01
2022-08-25T05:46:26.929Z,19.89
2022-08-25T05:48:28.476Z,19.75
2022-08-25T05:50:30.089Z,19.70
2022-08-25T05:52:31.579Z,19.69
2022-08-25T05:54:33.089Z,19.58
2022-08-25T05:56:34.598Z,19.60
2022-08-25T05:58:36.766Z,19.36
2022-08-25T06:00:40.034Z,19.41
2022-08-25T06:02:41.641Z,19.31
2022-08-25T06:04:43.220Z,19.24
2022-08-25T06:06:44.851Z,19.23
2022-08-25T06:08:46.697Z,19.24
2022-08-25T06:10:52.391Z,19.18
2022-08-25T06:12:54.264Z,19.12
2022-08-25T06:14:58.385Z,19.09
2022-08-25T06:17:01.255Z,19.06
2022-08-25T06:19:03.028Z,19.01
2022-08-25T06:21:09.413Z,18.82
2022-08-25T06:23:10.943Z,18.73
2022-08-25T06:25:15.172Z,18.74
2022-08-25T06:27:16.873Z,18.67
2022-08-25T06:29:19.086Z,18.73
2022-08-25T06:31:21.703Z,18.63
2022-08-25T06:33:24.597Z,18.68
2022-08-25T06:35:26.092Z,18.65
2022-08-25T06:37:27.620Z,18.65
2022-08-25T06:39:29.183Z,18.60
2022-08-25T06:41:37.096Z,18.71
2022-08-25T06:43:41.691Z,18.75
2022-08-25T06:45:46.680Z,18.73
2022-08-25T06:47:48.188Z,18.85
2022-08-25T06:49:51.232Z,18.87
2022-08-25T06:51:52.839Z,18.89
2022-08-25T06:53:54.389Z,18.86
2022-08-25T06:55:56.958Z,18.91
2022-08-25T06:57:58.519Z,18.93
2022-08-25T07:00:00.056Z,18.96
2022-08-25T07:02:03.185Z,18.93
2022-08-25T07:04:10.356Z,18.82
2022-08-25T07:06:18.467Z,18.85
2022-08-25T07:08:20.755Z,18.82
2022-08-25T07:10:22.355Z,18.88
2022-08-25T07:12:24.310Z,18.82
2022-08-25T07:14:27.083Z,18.87
2022-08-25T07:16:31.013Z,19.03
2022-08-25T07:18:32.878Z,19.18
2022-08-25T07:20:34.922Z,19.11
2022-08-25T07:22:37.804Z,19.08
2022-08-25T07:24:39.428Z,19.08
2022-08-25T07:26:42.428Z,19.22
2022-08-25T07:28:47.191Z,19.27
2022-08-25T07:30:51.693Z,19.23
2022-08-25T07:35:15.351Z,19.43
2022-08-25T07:39:42.878Z,19.68
2022-08-25T07:41:44.483Z,19.77
2022-08-25T07:43:46.863Z,19.83
2022-08-25T07:45:51.704Z,19.98
2022-08-25T07:47:53.173Z,19.80
2022-08-25T07:49:54.715Z,19.96
2022-08-25T07:52:05.533Z,20.04
2022-08-25T07:54:08.451Z,20.13
2022-08-25T07:56:13.119Z,20.10
2022-08-25T07:58:14.757Z,20.17
2022-08-25T08:00:17.045Z,20.20
2022-08-25T08:02:19.470Z,20.18
2022-08-25T08:04:21.457Z,20.20
2022-08-25T08:06:24.419Z,20.30
2022-08-25T08:08:26.129Z,20.41
2022-08-25T08:11:03.146Z,20.58
2022-08-25T08:12:50.567Z,20.68
2022-08-25T08:14:53.752Z,20.61
2022-08-25T08:16:55.359Z,20.68
2022-08-25T08:18:57.714Z,20.79
2022-08-25T08:20:59.195Z,20.80
2022-08-25T08:23:00.953Z,20.95
2022-08-25T08:25:05.201Z,21.08
2022-08-25T08:27:13.677Z,21.28
2022-08-25T08:29:16.584Z,21.37
2022-08-25T08:31:18.163Z,21.35
2022-08-25T08:33:20.762Z,21.36
2022-08-25T08:35:22.395Z,21.49
2022-08-25T08:37:23.999Z,21.55
2022-08-25T08:39:26.017Z,21.41
2022-08-25T08:42:07.634Z,21.70
2022-08-25T08:44:13.414Z,21.65
2022-08-25T08:46:16.479Z,21.63
2022-08-25T08:48:38.537Z,21.66
2022-08-25T08:50:52.320Z,21.71
2022-08-25T08:52:57.701Z,22.03
2022-08-25T08:55:07.799Z,22.40
2022-08-25T08:57:14.508Z,22.76
2022-08-25T08:59:19.205Z,23.05
2022-08-25T09:01:27.927Z,23.23
2022-08-25T09:03:35.936Z,23.34
2022-08-25T09:05:47.283Z,23.20
2022-08-25T09:07:54.769Z,22.74
2022-08-25T09:10:10.477Z,22.54
2022-08-25T09:12:18.144Z,22.45
2022-08-25T09:14:35.695Z,22.62
2022-08-25T09:16:51.643Z,22.59
2022-08-25T09:19:00.631Z,22.95
2022-08-25T09:21:14.199Z,23.42
2022-08-25T09:23:32.545Z,23.59
2022-08-25T09:25:53.366Z,23.66
2022-08-25T09:28:06.262Z,23.87
2022-08-25T09:30:10.331Z,24.07
2022-08-25T09:32:15.266Z,24.14
2022-08-25T09:34:30.141Z,24.31
2022-08-25T09:36:37.289Z,24.32
2022-08-25T09:38:39.422Z,24.27
2022-08-25T09:40:45.284Z,24.60
2022-08-25T09:42:57.937Z,24.66
2022-08-25T09:47:58.229Z,24.53
2022-08-25T09:50:04.530Z,24.55
2022-08-25T09:52:25.456Z,24.56
2022-08-25T09:54:36.261Z,24.51
2022-08-25T09:56:51.509Z,24.38
2022-08-25T09:58:54.105Z,24.32
2022-08-25T10:01:12.727Z,24.11
2022-08-25T10:03:22.779Z,24.31
2022-08-25T10:05:27.367Z,23.97
2022-08-25T10:07:33.143Z,23.64
2022-08-25T10:09:42.016Z,23.66
2022-08-25T10:11:46.420Z,23.93
2022-08-25T10:14:00.365Z,24.00
2022-08-25T10:16:17.720Z,23.86
2022-08-25T10:18:26.631Z,24.22
2022-08-25T10:20:30.909Z,24.56
2022-08-25T10:22:38.131Z,24.67
2022-08-25T10:24:43.890Z,24.71
2022-08-25T10:26:55.507Z,24.66
2022-08-25T10:29:11.083Z,24.61
2022-08-25T10:31:20.140Z,24.45
2022-08-25T10:33:32.784Z,24.45
2022-08-25T10:35:47.825Z,24.62
2022-08-25T10:38:03.072Z,24.63
2022-08-25T10:40:16.661Z,24.41
2022-08-25T10:42:33.493Z,24.14
2022-08-25T10:44:42.836Z,24.00
2022-08-25T10:46:56.796Z,24.03
2022-08-25T10:49:04.142Z,24.05
2022-08-25T10:51:21.515Z,24.11
2022-08-25T10:53:34.557Z,24.01
2022-08-25T10:55:43.830Z,23.93
2022-08-25T10:57:55.724Z,24.16
2022-08-25T11:00:06.382Z,24.25
2022-08-25T11:02:49.838Z,24.45
2022-08-25T11:05:00.470Z,24.65
2022-08-25T11:07:07.987Z,24.81
2022-08-25T11:09:15.608Z,24.96
2022-08-25T11:11:25.802Z,25.09
2022-08-25T11:13:41.835Z,25.27
2022-08-25T11:16:19.472Z,25.48
2022-08-25T11:18:22.325Z,25.79
2022-08-25T11:20:32.128Z,26.17
2022-08-25T11:22:42.331Z,26.01
2022-08-25T11:25:01.793Z,25.91
2022-08-25T11:27:09.992Z,25.80
2022-08-25T11:29:18.655Z,25.92
2022-08-25T11:31:22.730Z,26.07
2022-08-25T11:33:25.806Z,26.26
2022-08-25T11:35:32.735Z,26.19
2022-08-25T11:37:38.037Z,26.22
2022-08-25T11:40:02.900Z,26.02
2022-08-25T11:42:16.683Z,26.14
2022-08-25T11:44:37.982Z,25.72
2022-08-25T11:46:50.044Z,25.66
2022-08-25T11:49:00.364Z,25.68
2022-08-25T11:51:05.097Z,25.52
2022-08-25T11:53:23.698Z,25.51
2022-08-25T11:55:46.605Z,25.46
2022-08-25T11:57:53.270Z,25.40
2022-08-25T12:00:05.635Z,25.51
2022-08-25T12:02:07.206Z,25.45
2022-08-25T12:04:12.055Z,25.45
2022-08-25T12:06:32.762Z,25.40
2022-08-25T12:09:18.438Z,25.29
2022-08-25T12:11:43.802Z,25.50
2022-08-25T12:13:46.188Z,25.54
2022-08-25T12:15:59.547Z,25.56
2022-08-25T12:18:16.998Z,25.35
2022-08-25T12:20:58.672Z,25.34
2022-08-25T12:23:02.220Z,25.50
2022-08-25T12:25:08.886Z,25.48
2022-08-25T12:27:20.102Z,25.87
2022-08-25T12:29:31.724Z,26.25
2022-08-25T12:32:06.162Z,26.18
2022-08-25T12:34:30.575Z,26.12
2022-08-25T12:36:34.296Z,26.12
2022-08-25T12:38:43.694Z,26.00
2022-08-25T12:40:58.245Z,25.70
2022-08-25T12:43:07.212Z,25.60
2022-08-25T12:45:14.878Z,25.64
2022-08-25T12:47:30.531Z,25.93
2022-08-25T12:49:34.097Z,26.05
2022-08-25T12:51:54.864Z,26.36
2022-08-25T12:54:15.873Z,26.42
2022-08-25T12:56:31.179Z,26.57
2022-08-25T12:58:58.407Z,26.67
2022-08-25T13:01:17.540Z,26.90
2022-08-25T13:04:00.285Z,26.61
2022-08-25T13:06:14.960Z,26.44
2022-08-25T13:08:42.174Z,26.62
2022-08-25T13:10:51.778Z,26.67
2022-08-25T13:13:01.629Z,26.76
2022-08-25T13:15:04.574Z,26.92
2022-08-25T13:17:09.578Z,26.99
2022-08-25T13:19:19.843Z,27.26
2022-08-25T13:21:28.078Z,27.38
2022-08-25T13:23:36.517Z,27.38
2022-08-25T13:25:50.973Z,27.31
2022-08-25T13:27:58.864Z,27.35
2022-08-25T13:30:03.995Z,27.61
2022-08-25T13:32:09.609Z,27.70
2022-08-25T13:34:19.503Z,27.53
2022-08-25T13:36:22.945Z,27.64
2022-08-25T13:38:26.934Z,27.32
2022-08-25T13:40:30.203Z,27.02
2022-08-25T13:42:33.045Z,26.80
2022-08-25T13:44:39.107Z,26.69
2022-08-25T13:46:40.652Z,26.83
2022-08-25T13:48:49.337Z,26.89
2022-08-25T13:50:52.054Z,27.03
2022-08-25T13:52:56.050Z,27.33
2022-08-25T13:54:59.059Z,27.65
2022-08-25T13:57:06.781Z,27.51
2022-08-25T13:59:23.760Z,27.53
2022-08-25T14:01:52.224Z,27.41
2022-08-25T14:03:52.695Z,27.07
2022-08-25T14:06:06.741Z,26.73
2022-08-25T14:08:29.703Z,26.62
2022-08-25T14:10:39.188Z,26.51
2022-08-25T14:12:44.969Z,26.35
2022-08-25T14:14:57.948Z,26.28
2022-08-25T14:17:08.219Z,26.35
2022-08-25T14:19:20.964Z,26.35
2022-08-25T14:21:24.861Z,26.31
2022-08-25T14:23:28.872Z,26.48
2022-08-25T14:25:31.260Z,26.70
2022-08-25T14:27:38.767Z,26.94
2022-08-25T14:29:43.488Z,27.03
2022-08-25T14:31:46.885Z,27.29
2022-08-25T14:33:55.825Z,27.25
2022-08-25T14:35:59.793Z,27.20
2022-08-25T14:38:07.257Z,27.41
2022-08-25T14:40:09.986Z,27.45
2022-08-25T14:42:11.772Z,27.51
2022-08-25T14:44:14.102Z,27.36
2022-08-25T14:46:20.327Z,27.43
2022-08-25T14:48:26.405Z,27.38
2022-08-25T14:50:29.397Z,27.35
2022-08-25T14:52:31.628Z,27.21
2022-08-25T14:54:35.843Z,27.13
2022-08-25T14:56:43.279Z,27.26
2022-08-25T14:58:48.482Z,27.22
2022-08-25T15:00:53.195Z,27.15
2022-08-25T15:02:55.288Z,27.04
2022-08-25T15:05:00.081Z,27.20
2022-08-25T15:07:04.958Z,27.08
2022-08-25T15:09:06.458Z,26.99
2022-08-25T15:11:09.371Z,26.81
2022-08-25T15:13:11.174Z,26.70
2022-08-25T15:15:12.865Z,26.39
2022-08-25T15:17:15.503Z,26.29
2022-08-25T15:19:19.511Z,26.31
2022-08-25T15:21:21.338Z,26.47
2022-08-25T15:23:24.485Z,26.54
2022-08-25T15:25:26.034Z,26.73
2022-08-25T15:27:30.828Z,26.79
2022-08-25T15:29:33.692Z,26.87
2022-08-25T15:31:36.012Z,26.99
2022-08-25T15:33:37.711Z,27.08
2022-08-25T15:35:39.391Z,27.13
2022-08-25T15:37:40.928Z,27.01
2022-08-25T15:39:45.390Z,26.91
2022-08-25T15:41:47.499Z,26.89
2022-08-25T15:43:51.650Z,26.90
2022-08-25T15:45:53.235Z,26.84
2022-08-25T15:47:54.863Z,26.82
2022-08-25T15:50:05.369Z,26.82
2022-08-25T15:52:07.416Z,26.75
2022-08-25T15:54:09.204Z,26.80
2022-08-25T15:56:12.551Z,26.68
2022-08-25T15:58:14.439Z,26.64
2022-08-25T16:00:17.898Z,26.67
2022-08-25T16:02:19.501Z,26.75
2022-08-25T16:04:22.092Z,26.83
2022-08-25T16:06:25.807Z,26.87
2022-08-25T16:08:27.771Z,26.87
2022-08-25T16:10:33.060Z,26.82
2022-08-25T16:12:39.304Z,26.76
2022-08-25T16:14:40.820Z,26.85
2022-08-25T16:16:42.492Z,26.97
2022-08-25T16:18:45.112Z,26.95
2022-08-25T16:20:47.893Z,26.83
2022-08-25T16:22:49.534Z,26.69
2022-08-25T16:24:51.749Z,26.51
2022-08-25T16:26:55.810Z,26.43
2022-08-25T16:28:58.942Z,26.45
2022-08-25T16:31:00.757Z,26.42
2022-08-25T16:33:03.595Z,26.42
2022-08-25T16:35:10.891Z,26.36
2022-08-25T16:37:13.108Z,26.35
2022-08-25T16:39:14.608Z,26.37
2022-08-25T16:41:18.925Z,26.38
2022-08-25T16:43:20.441Z,26.44
2022-08-25T16:45:23.479Z,26.49
2022-08-25T16:47:25.205Z,26.46
2022-08-25T16:49:28.740Z,26.43
2022-08-25T16:51:32.605Z,26.31
2022-08-25T16:53:34.272Z,26.20
2022-08-25T16:55:39.260Z,26.09
2022-08-25T16:57:43.442Z,25.99
2022-08-25T16:59:45.946Z,25.96
2022-08-25T17:01:49.058Z,25.96
2022-08-25T17:03:56.090Z,25.88
2022-08-25T17:05:59.284Z,25.83
2022-08-25T17:08:01.362Z,25.76
2022-08-25T17:10:06.809Z,25.61
2022-08-25T17:12:14.041Z,25.58
2022-08-25T17:14:17.993Z,25.49
2022-08-25T17:16:21.717Z,25.47
2022-08-25T17:18:24.737Z,25.38
2022-08-25T17:20:26.556Z,25.25
2022-08-25T17:22:29.558Z,25.30
2022-08-25T17:24:33.352Z,25.22
2022-08-25T17:26:37.032Z,25.19
2022-08-25T17:28:39.828Z,25.11
2022-08-25T17:30:41.442Z,25.08
2022-08-25T17:32:43.043Z,25.07
2022-08-25T17:34:48.343Z,25.05
2022-08-25T17:36:50.680Z,24.97
2022-08-25T17:38:52.274Z,24.94
2022-08-25T17:40:54.852Z,24.82
2022-08-25T17:42:56.336Z,24.82
2022-08-25T17:44:57.977Z,24.79
2022-08-25T17:46:59.538Z,24.77
2022-08-25T17:49:01.833Z,24.77
2022-08-25T17:51:06.460Z,24.72
2022-08-25T17:53:09.317Z,24.71
2022-08-25T17:55:12.055Z,24.58
2022-08-25T17:57:13.832Z,24.45
2022-08-25T17:59:15.575Z,24.39
2022-08-25T18:01:18.991Z,24.41
2022-08-25T18:03:20.603Z,24.42
2022-08-25T18:05:22.245Z,24.53
2022-08-25T18:07:25.546Z,24.36
2022-08-25T18:09:27.296Z,24.49
2022-08-25T18:11:30.069Z,24.45
2022-08-25T18:13:31.818Z,24.43
2022-08-25T18:15:33.382Z,24.42
2022-08-25T18:17:35.266Z,24.37
2022-08-25T18:19:36.990Z,24.29
2022-08-25T18:21:39.492Z,24.25
2022-08-25T18:23:43.809Z,24.19
2022-08-25T18:25:49.001Z,24.19
2022-08-25T18:27:50.643Z,24.16
2022-08-25T18:29:52.189Z,24.15
2022-08-25T18:31:57.134Z,24.12
2022-08-25T18:34:01.747Z,24.05
2022-08-25T18:36:03.857Z,24.00
2022-08-25T18:38:06.060Z,23.99
2022-08-25T18:40:10.510Z,23.98
2022-08-25T18:42:12.140Z,23.91
2022-08-25T18:44:15.686Z,23.92
2022-08-25T18:46:17.465Z,23.93
2022-08-25T18:48:26.529Z,23.83
2022-08-25T18:50:30.628Z,23.83
2022-08-25T18:52:32.267Z,23.77
2022-08-25T18:54:33.792Z,23.76
2022-08-25T18:56:39.065Z,23.66
2022-08-25T18:58:40.841Z,23.60
2022-08-25T19:00:44.230Z,23.58
2022-08-25T19:02:47.028Z,23.53
2022-08-25T19:04:48.890Z,23.49
2022-08-25T19:06:51.921Z,23.44
2022-08-25T19:08:53.521Z,23.39
2022-08-25T19:10:55.146Z,23.34
2022-08-25T19:13:02.190Z,23.30
2022-08-25T19:15:10.233Z,23.29
2022-08-25T19:17:11.818Z,23.26
2022-08-25T19:19:13.969Z,23.25
2022-08-25T19:21:15.739Z,23.21
2022-08-25T19:23:17.398Z,23.23
2022-08-25T19:25:20.204Z,23.15
2022-08-25T19:27:21.743Z,23.26
2022-08-25T19:29:24.831Z,23.21
2022-08-25T19:31:27.480Z,23.13
2022-08-25T19:33:44.135Z,23.13
2022-08-25T19:35:51.947Z,23.04
2022-08-25T19:37:54.509Z,23.11
2022-08-25T19:39:57.331Z,23.13
2022-08-25T19:41:59.187Z,23.02
2022-08-25T19:44:01.548Z,23.11
2022-08-25T19:46:04.943Z,23.11
2022-08-25T19:48:07.178Z,23.03
2022-08-25T19:50:09.896Z,23.08
2022-08-25T19:52:12.631Z,23.06
2022-08-25T19:54:16.534Z,23.06
2022-08-25T19:56:18.066Z,22.97
2022-08-25T19:58:19.614Z,23.02
2022-08-25T20:00:25.187Z,22.97
2022-08-25T20:02:29.825Z,22.84
2022-08-25T20:04:32.046Z,22.83
2022-08-25T20:06:33.590Z,22.77
2022-08-25T20:08:35.099Z,22.79
2022-08-25T20:10:41.777Z,22.82
2022-08-25T20:12:44.178Z,22.83
2022-08-25T20:14:47.650Z,22.82
2022-08-25T20:16:49.174Z,22.77
2022-08-25T20:18:54.639Z,22.74
2022-08-25T20:20:56.481Z,22.76
2022-08-25T20:22:58.574Z,22.74
2022-08-25T20:25:04.053Z,22.69
2022-08-25T20:27:16.200Z,22.69
2022-08-25T20:29:18.049Z,22.62
2022-08-25T20:31:19.712Z,22.56
2022-08-25T20:33:23.095Z,22.59
2022-08-25T20:35:29.059Z,22.40
2022-08-25T20:37:31.271Z,22.32
2022-08-25T20:39:38.473Z,22.23
2022-08-25T20:41:40.388Z,22.18
2022-08-25T20:43:42.076Z,22.21
2022-08-25T20:45:43.634Z,22.18
2022-08-25T20:47:45.471Z,22.28
2022-08-25T20:49:47.603Z,22.28
2022-08-25T20:51:50.617Z,22.36
2022-08-25T20:53:53.303Z,22.43
2022-08-25T20:55:54.836Z,22.43
2022-08-25T20:57:56.451Z,22.47
2022-08-25T20:59:58.220Z,22.46
2022-08-25T21:02:00.463Z,22.50
2022-08-25T21:04:04.111Z,22.49
2022-08-25T21:06:07.524Z,22.49
2022-08-25T21:08:10.956Z,22.39
2022-08-25T21:10:14.244Z,22.36
2022-08-25T21:12:16.347Z,22.33
2022-08-25T21:14:17.905Z,22.36
2022-08-25T21:16:19.578Z,22.28
2022-08-25T21:18:21.136Z,22.27
2022-08-25T21:20:23.928Z,22.30
2022-08-25T21:22:25.457Z,22.35
2022-08-25T21:24:28.894Z,22.32
2022-08-25T21:26:31.148Z,22.29
2022-08-25T21:28:33.208Z,22.26
2022-08-25T21:30:39.824Z,22.21
2022-08-25T21:32:53.021Z,22.25
2022-08-25T21:34:56.253Z,22.26
2022-08-25T21:36:58.317Z,22.16
2022-08-25T21:39:01.581Z,22.15
2022-08-25T21:41:08.827Z,22.23
2022-08-25T21:43:10.512Z,22.21
2022-08-25T21:45:12.276Z,22.24
2022-08-25T21:47:14.566Z,22.20
2022-08-25T21:49:16.362Z,22.21
2022-08-25T21:51:20.984Z,22.07
2022-08-25T21:53:23.583Z,22.12
2022-08-25T21:55:25.128Z,22.17
2022-08-25T21:57:28.404Z,22.18
2022-08-25T21:59:32.633Z,22.15
2022-08-25T22:01:34.885Z,22.11
2022-08-25T22:03:38.816Z,22.03
2022-08-25T22:05:41.130Z,22.03
2022-08-25T22:07:47.194Z,22.00
2022-08-25T22:09:49.145Z,21.97
2022-08-25T22:11:51.806Z,21.96
2022-08-25T22:13:58.331Z,21.99
2022-08-25T22:16:02.375Z,21.95
2022-08-25T22:18:04.172Z,22.00
2022-08-25T22:20:07.019Z,21.93
2022-08-25T22:22:08.788Z,21.97
2022-08-25T22:24:11.014Z,21.95
2022-08-25T22:26:12.731Z,22.04
2022-08-25T22:28:15.194Z,22.02
2022-08-25T22:30:18.263Z,22.10
2022-08-25T22:32:20.235Z,22.11
2022-08-25T22:34:30.693Z,22.13
2022-08-25T22:36:35.907Z,22.14
2022-08-25T22:38:37.426Z,22.09
2022-08-25T22:40:40.547Z,22.13
2022-08-25T22:42:44.926Z,22.07
2022-08-25T22:44:49.367Z,22.04
2022-08-25T22:46:53.454Z,22.01
2022-08-25T22:48:55.385Z,21.94
2022-08-25T22:51:03.582Z,21.97
2022-08-25T22:53:05.126Z,21.96
2022-08-25T22:55:08.025Z,21.93
2022-08-25T22:57:13.396Z,21.94
2022-08-25T22:59:15.352Z,21.97
2022-08-25T23:01:19.613Z,21.97
2022-08-25T23:03:22.843Z,21.91
2022-08-25T23:05:24.586Z,21.95
2022-08-25T23:07:26.694Z,21.94
2022-08-25T23:09:28.216Z,21.95
2022-08-25T23:11:30.379Z,22.00
2022-08-25T23:13:34.467Z,22.00
2022-08-25T23:15:36.259Z,21.95
2022-08-25T23:17:38.411Z,21.98
2022-08-25T23:19:41.289Z,21.96
2022-08-25T23:21:43.359Z,21.91
2022-08-25T23:23:45.144Z,21.95
2022-08-25T23:25:46.678Z,21.93
2022-08-25T23:27:48.534Z,21.83
2022-08-25T23:29:53.634Z,21.95
2022-08-25T23:31:56.324Z,21.91
2022-08-25T23:33:58.800Z,21.87
2022-08-25T23:36:04.380Z,21.86
2022-08-25T23:38:05.877Z,21.88
2022-08-25T23:40:13.336Z,21.85
2022-08-25T23:42:20.967Z,21.82
2022-08-25T23:44:23.115Z,21.73
2022-08-25T23:46:27.697Z,21.80
2022-08-25T23:48:29.562Z,21.85
2022-08-25T23:50:31.643Z,21.81
2022-08-25T23:52:35.583Z,21.82
2022-08-25T23:54:37.108Z,21.82
2022-08-25T23:56:44.663Z,21.80
2022-08-25T23:58:54.293Z,21.78
